createdAt,value
2019-03-05T00:01:52.887Z,98761.02
2019-03-05T00:04:23.384Z,98758.67
2019-03-05T00:06:55.027Z,98763.61
2019-03-05T00:09:25.463Z,98764.71
2019-03-05T00:11:56.384Z,98761.33
2019-03-05T00:14:27.074Z,98759.09
2019-03-05T00:17:04.136Z,98758.42
2019-03-05T00:19:34.449Z,98767.16
2019-03-05T00:22:05.191Z,98757.73
2019-03-05T00:25:01.622Z,98760.92
2019-03-05T00:27:59.987Z,98767.70
2019-03-05T00:30:54.112Z,98773.94
2019-03-05T00:34:04.163Z,98775.30
2019-03-05T00:36:46.739Z,98779.02
2019-03-05T00:40:07.460Z,98768.77
2019-03-05T00:43:52.026Z,98773.55
2019-03-05T00:47:05.118Z,98770.34
2019-03-05T00:50:44.176Z,98770.97
2019-03-05T00:53:35.834Z,98769.73
2019-03-05T00:56:44.176Z,98770.81
2019-03-05T01:00:13.938Z,98771.34
2019-03-05T01:03:05.772Z,98771.03
2019-03-05T01:06:25.246Z,98773.74
2019-03-05T01:08:57.794Z,98766.66
2019-03-05T01:11:28.205Z,98763.73
2019-03-05T01:13:58.965Z,98756.72
2019-03-05T01:16:34.806Z,98757.14
2019-03-05T01:19:05.172Z,98766.00
2019-03-05T01:21:35.869Z,98758.80
2019-03-05T01:24:07.430Z,98767.05
2019-03-05T01:26:40.317Z,98767.77
2019-03-05T01:29:10.688Z,98763.19
2019-03-05T01:31:58.478Z,98766.34
2019-03-05T01:34:50.611Z,98770.24
2019-03-05T01:37:20.936Z,98761.62
2019-03-05T01:40:08.895Z,98759.31
2019-03-05T01:42:39.603Z,98768.51
2019-03-05T01:45:12.434Z,98772.66
2019-03-05T01:47:42.906Z,98780.40
2019-03-05T01:50:15.236Z,98776.58
2019-03-05T01:52:45.617Z,98776.88
2019-03-05T01:55:16.148Z,98776.43
2019-03-05T01:57:46.536Z,98789.48
2019-03-05T02:00:19.130Z,98789.56
2019-03-05T02:02:49.495Z,98788.33
2019-03-05T02:05:20.963Z,98776.39
2019-03-05T02:07:52.077Z,98780.38
2019-03-05T02:10:23.402Z,98785.09
2019-03-05T02:12:53.721Z,98787.91
2019-03-05T02:15:24.078Z,98793.07
2019-03-05T02:17:54.475Z,98788.93
2019-03-05T02:20:26.568Z,98792.18
2019-03-05T02:23:12.527Z,98784.98
2019-03-05T02:26:41.659Z,98794.58
2019-03-05T02:29:46.571Z,98796.47
2019-03-05T02:33:25.110Z,98792.28
2019-03-05T02:36:39.611Z,98800.05
2019-03-05T02:39:55.526Z,98803.90
2019-03-05T02:43:27.949Z,98803.14
2019-03-05T02:46:55.196Z,98802.98
2019-03-05T02:50:12.484Z,98801.55
2019-03-05T02:53:09.220Z,98804.70
2019-03-05T02:56:42.989Z,98805.54
2019-03-05T02:59:10.944Z,98810.49
2019-03-05T03:02:00.271Z,98818.65
2019-03-05T03:04:34.370Z,98812.05
2019-03-05T03:07:04.769Z,98816.05
2019-03-05T03:10:14.455Z,98821.23
2019-03-05T03:12:45.443Z,98842.09
2019-03-05T03:15:17.617Z,98834.13
2019-03-05T03:17:49.575Z,98834.83
2019-03-05T03:20:22.021Z,98833.81
2019-03-05T03:22:54.499Z,98836.80
2019-03-05T03:25:25.525Z,98830.71
2019-03-05T03:27:56.297Z,98841.98
2019-03-05T03:30:29.028Z,98843.04
2019-03-05T03:32:59.500Z,98845.17
2019-03-05T03:35:29.941Z,98839.02
2019-03-05T03:38:00.372Z,98835.34
2019-03-05T03:40:30.807Z,98840.14
2019-03-05T03:43:01.244Z,98840.52
2019-03-05T03:45:33.713Z,98837.19
2019-03-05T03:48:04.142Z,98852.36
2019-03-05T03:50:34.730Z,98843.82
2019-03-05T03:53:05.269Z,98839.33
2019-03-05T03:55:35.939Z,98843.85
2019-03-05T03:58:06.417Z,98843.58
2019-03-05T04:00:38.043Z,98850.72
2019-03-05T04:03:08.571Z,98854.83
2019-03-05T04:05:39.064Z,98861.95
2019-03-05T04:08:10.638Z,98861.73
2019-03-05T04:10:41.288Z,98875.70
2019-03-05T04:13:11.714Z,98861.48
2019-03-05T04:15:42.439Z,98861.56
2019-03-05T04:18:13.267Z,98873.91
2019-03-05T04:20:52.429Z,98878.44
2019-03-05T04:23:23.552Z,98872.29
2019-03-05T04:25:54.355Z,98874.57
2019-03-05T04:28:25.163Z,98882.08
2019-03-05T04:30:55.654Z,98869.33
2019-03-05T04:33:26.067Z,98859.84
2019-03-05T04:35:56.442Z,98871.72
2019-03-05T04:38:26.923Z,98867.31
2019-03-05T04:40:57.325Z,98864.84
2019-03-05T04:43:27.806Z,98873.20
2019-03-05T04:46:16.130Z,98869.66
2019-03-05T04:49:06.433Z,98869.27
2019-03-05T04:51:43.988Z,98872.09
2019-03-05T04:54:14.744Z,98873.20
2019-03-05T04:56:45.487Z,98881.14
2019-03-05T04:59:16.315Z,98873.96
2019-03-05T05:01:46.700Z,98882.88
2019-03-05T05:04:17.513Z,98881.84
2019-03-05T05:06:48.338Z,98889.95
2019-03-05T05:09:18.685Z,98891.21
2019-03-05T05:11:49.534Z,98897.21
2019-03-05T05:14:19.907Z,98900.47
2019-03-05T05:16:50.334Z,98898.56
2019-03-05T05:19:21.574Z,98897.11
2019-03-05T05:21:52.419Z,98891.75
2019-03-05T05:24:22.814Z,98893.88
2019-03-05T05:26:53.247Z,98893.64
2019-03-05T05:29:24.225Z,98905.14
2019-03-05T05:31:55.089Z,98895.12
2019-03-05T05:34:25.772Z,98901.13
2019-03-05T05:36:56.694Z,98905.90
2019-03-05T05:40:22.435Z,98894.75
2019-03-05T05:42:53.655Z,98898.67
2019-03-05T05:45:26.709Z,98902.55
2019-03-05T05:47:57.532Z,98916.83
2019-03-05T05:50:27.873Z,98915.81
2019-03-05T05:52:58.349Z,98912.09
2019-03-05T05:55:28.778Z,98920.86
2019-03-05T05:57:59.206Z,98918.49
2019-03-05T06:00:29.735Z,98920.47
2019-03-05T06:03:00.715Z,98918.79
2019-03-05T06:05:31.436Z,98930.43
2019-03-05T06:08:03.297Z,98926.81
2019-03-05T06:10:33.697Z,98927.27
2019-03-05T06:13:04.574Z,98930.30
2019-03-05T06:15:35.035Z,98924.93
2019-03-05T06:18:09.114Z,98938.16
2019-03-05T06:20:42.577Z,98940.05
2019-03-05T06:23:12.270Z,98964.63
2019-03-05T06:25:43.040Z,98946.20
2019-03-05T06:28:15.922Z,98946.81
2019-03-05T06:30:46.408Z,98960.84
2019-03-05T06:33:16.746Z,98957.34
2019-03-05T06:35:47.258Z,98964.30
2019-03-05T06:38:17.991Z,98961.75
2019-03-05T06:40:48.484Z,98965.08
2019-03-05T06:43:19.528Z,98964.70
2019-03-05T06:45:49.911Z,98970.80
2019-03-05T06:48:22.385Z,98970.61
2019-03-05T06:50:52.943Z,98970.20
2019-03-05T06:53:26.438Z,98957.66
2019-03-05T06:55:56.785Z,98966.13
2019-03-05T06:58:27.238Z,98958.34
2019-03-05T07:00:57.708Z,98968.91
2019-03-05T07:03:28.596Z,98964.46
2019-03-05T07:06:47.944Z,98974.20
2019-03-05T07:09:53.610Z,98973.23
2019-03-05T07:12:59.249Z,98989.44
2019-03-05T07:16:31.701Z,99001.80
2019-03-05T07:19:19.742Z,98986.12
2019-03-05T07:22:41.176Z,98992.77
2019-03-05T07:25:18.734Z,99006.00
2019-03-05T07:27:58.159Z,98991.91
2019-03-05T07:30:29.382Z,99001.58
2019-03-05T07:33:03.221Z,99010.27
2019-03-05T07:35:34.991Z,99015.80
2019-03-05T07:38:09.386Z,99005.60
2019-03-05T07:40:39.940Z,99009.75
2019-03-05T07:43:10.508Z,98998.87
2019-03-05T07:45:41.294Z,99025.30
2019-03-05T07:48:11.647Z,99008.45
2019-03-05T07:50:42.525Z,99019.22
2019-03-05T07:53:13.035Z,99024.52
2019-03-05T07:55:49.635Z,99024.09
2019-03-05T07:58:26.973Z,99041.20
2019-03-05T08:00:58.731Z,99055.42
2019-03-05T08:03:34.086Z,99030.17
2019-03-05T08:06:04.984Z,99046.66
2019-03-05T08:09:31.959Z,99056.91
2019-03-05T08:12:34.702Z,99043.19
2019-03-05T08:16:01.681Z,99047.02
2019-03-05T08:18:26.674Z,99059.20
2019-03-05T08:21:08.878Z,99061.78
2019-03-05T08:23:39.967Z,99048.67
2019-03-05T08:26:17.942Z,99054.45
2019-03-05T08:28:50.574Z,99058.86
2019-03-05T08:31:32.582Z,99063.70
2019-03-05T08:34:14.401Z,99057.06
2019-03-05T08:36:58.586Z,99069.35
2019-03-05T08:39:29.865Z,99070.34
2019-03-05T08:42:10.796Z,99067.78
2019-03-05T08:44:52.249Z,99070.20
2019-03-05T08:47:26.668Z,99065.97
2019-03-05T08:49:57.259Z,99070.36
2019-03-05T08:52:28.927Z,99075.59
2019-03-05T08:55:14.769Z,99080.61
2019-03-05T08:58:04.974Z,99078.67
2019-03-05T09:00:35.852Z,99075.07
2019-03-05T09:03:33.091Z,99084.90
2019-03-05T09:06:11.077Z,99084.16
2019-03-05T09:08:42.157Z,99083.77
2019-03-05T09:11:19.078Z,99092.34
2019-03-05T09:13:54.137Z,99086.41
2019-03-05T09:16:32.644Z,99088.63
2019-03-05T09:19:01.693Z,99103.73
2019-03-05T09:21:32.299Z,99103.30
2019-03-05T09:24:05.976Z,99095.84
2019-03-05T09:27:02.113Z,99101.30
2019-03-05T09:29:42.183Z,99107.07
2019-03-05T09:32:19.769Z,99101.53
2019-03-05T09:34:57.039Z,99086.94
2019-03-05T09:37:43.734Z,99091.53
2019-03-05T09:40:18.067Z,99093.34
2019-03-05T09:42:49.962Z,99088.33
2019-03-05T09:45:24.652Z,99101.30
2019-03-05T09:48:05.257Z,99097.31
2019-03-05T09:51:36.882Z,99095.73
2019-03-05T09:54:07.578Z,99098.28
2019-03-05T09:56:40.989Z,99103.56
2019-03-05T09:59:11.414Z,99091.83
2019-03-05T10:01:44.399Z,99081.19
2019-03-05T10:04:17.000Z,99099.84
2019-03-05T10:07:28.292Z,99096.56
2019-03-05T10:10:13.333Z,99104.19
2019-03-05T10:12:44.173Z,99094.37
2019-03-05T10:16:00.515Z,99106.94
2019-03-05T10:18:33.219Z,99088.14
2019-03-05T10:21:11.817Z,99088.28
2019-03-05T10:23:44.037Z,99083.38
2019-03-05T10:26:18.659Z,99093.58
2019-03-05T10:28:53.938Z,99095.40
2019-03-05T10:31:29.764Z,99088.73
2019-03-05T10:34:03.196Z,99094.27
2019-03-05T10:37:18.887Z,99098.44
2019-03-05T10:40:00.496Z,99097.89
2019-03-05T10:43:22.095Z,99105.52
2019-03-05T10:46:14.757Z,99107.48
2019-03-05T10:49:06.250Z,99100.93
2019-03-05T10:52:05.593Z,99116.70
2019-03-05T10:55:11.006Z,99105.80
2019-03-05T10:58:33.995Z,99120.06
2019-03-05T11:01:02.548Z,99110.28
2019-03-05T11:03:33.484Z,99137.65
2019-03-05T11:06:06.600Z,99128.16
2019-03-05T11:08:38.750Z,99128.95
2019-03-05T11:11:13.823Z,99122.27
2019-03-05T11:13:44.795Z,99123.24
2019-03-05T11:16:30.764Z,99134.42
2019-03-05T11:18:53.855Z,99132.55
2019-03-05T11:21:40.454Z,99140.44
2019-03-05T11:24:24.086Z,99133.67
2019-03-05T11:26:54.722Z,99131.50
2019-03-05T11:29:37.534Z,99125.42
2019-03-05T11:32:08.501Z,99125.06
2019-03-05T11:34:44.838Z,99127.00
2019-03-05T11:37:15.472Z,99123.73
2019-03-05T11:40:03.577Z,99137.70
2019-03-05T11:42:42.997Z,99134.95
2019-03-05T11:45:20.980Z,99141.30
2019-03-05T11:47:52.882Z,99139.61
2019-03-05T11:50:23.880Z,99139.64
2019-03-05T11:52:58.106Z,99146.90
2019-03-05T11:55:29.779Z,99147.02
2019-03-05T11:58:00.533Z,99135.88
2019-03-05T12:00:53.159Z,99141.38
2019-03-05T12:03:32.462Z,99141.73
2019-03-05T12:06:04.136Z,99144.64
2019-03-05T12:08:34.829Z,99144.37
2019-03-05T12:11:05.992Z,99143.16
2019-03-05T12:13:41.385Z,99142.72
2019-03-05T12:16:17.908Z,99136.50
2019-03-05T12:18:56.551Z,99138.76
2019-03-05T12:21:35.892Z,99138.34
2019-03-05T12:24:11.737Z,99149.70
2019-03-05T12:27:02.824Z,99143.55
2019-03-05T12:29:46.155Z,99145.88
2019-03-05T12:32:21.267Z,99147.42
2019-03-05T12:34:54.191Z,99147.06
2019-03-05T12:37:35.831Z,99155.83
2019-03-05T12:40:20.313Z,99146.98
2019-03-05T12:42:53.742Z,99157.92
2019-03-05T12:45:26.323Z,99145.42
2019-03-05T12:48:06.529Z,99147.14
2019-03-05T12:50:42.044Z,99148.28
2019-03-05T12:53:18.665Z,99147.33
2019-03-05T12:55:58.850Z,99146.42
2019-03-05T12:58:39.153Z,99152.94
2019-03-05T13:01:20.850Z,99151.98
2019-03-05T13:04:18.972Z,99166.41
2019-03-05T13:06:53.245Z,99169.25
2019-03-05T13:09:29.720Z,99178.06
2019-03-05T13:12:14.445Z,99172.00
2019-03-05T13:15:03.173Z,99188.21
2019-03-05T13:24:13.606Z,99185.55
2019-03-05T13:26:51.753Z,99197.77
2019-03-05T13:29:53.540Z,99194.39
2019-03-05T13:32:54.114Z,99206.94
2019-03-05T13:35:54.301Z,99193.47
2019-03-05T13:38:25.280Z,99187.59
2019-03-05T13:41:04.567Z,99186.37
2019-03-05T13:43:36.567Z,99188.70
2019-03-05T13:46:08.138Z,99194.58
2019-03-05T13:53:39.225Z,99183.20
2019-03-05T13:57:04.047Z,99169.40
2019-03-05T13:59:52.028Z,99184.52
2019-03-05T14:02:39.154Z,99180.20
2019-03-05T14:06:02.866Z,99177.91
2019-03-05T14:09:23.726Z,99181.37
2019-03-05T14:12:11.506Z,99190.06
2019-03-05T14:15:04.697Z,99193.02
2019-03-05T14:18:01.119Z,99187.83
2019-03-05T14:20:57.701Z,99187.71
2019-03-05T14:23:41.181Z,99196.77
2019-03-05T14:26:14.841Z,99185.33
2019-03-05T14:28:51.019Z,99194.08
2019-03-05T14:31:21.885Z,99198.39
2019-03-05T14:33:52.733Z,99195.16
2019-03-05T14:36:24.876Z,99196.38
2019-03-05T14:38:56.879Z,99202.69
2019-03-05T14:41:30.813Z,99199.38
2019-03-05T14:44:09.098Z,99209.55
2019-03-05T14:46:54.822Z,99208.75
2019-03-05T14:49:36.428Z,99207.91
2019-03-05T14:52:12.269Z,99209.81
2019-03-05T14:54:49.312Z,99206.23
2019-03-05T14:57:31.121Z,99237.63
2019-03-05T15:00:02.095Z,99236.81
2019-03-05T15:02:36.504Z,99231.11
2019-03-05T15:05:23.610Z,99242.61
2019-03-05T15:08:11.767Z,99245.53
2019-03-05T15:10:57.876Z,99241.48
2019-03-05T15:13:30.471Z,99246.42
2019-03-05T15:16:03.675Z,99248.05
2019-03-05T15:18:34.305Z,99258.91
2019-03-05T15:21:08.711Z,99261.85
2019-03-05T15:24:07.908Z,99260.66
2019-03-05T15:27:08.963Z,99272.02
2019-03-05T15:29:42.721Z,99270.95
2019-03-05T15:32:23.349Z,99275.63
2019-03-05T15:35:02.244Z,99269.12
2019-03-05T15:37:39.712Z,99282.71
2019-03-05T15:40:16.848Z,99287.81
2019-03-05T15:42:49.843Z,99288.12
2019-03-05T15:45:24.329Z,99283.28
2019-03-05T15:48:04.602Z,99284.75
2019-03-05T15:50:35.221Z,99287.11
2019-03-05T15:53:10.146Z,99290.17
2019-03-05T15:55:40.733Z,99296.20
2019-03-05T15:58:11.592Z,99295.77
2019-03-05T16:00:45.012Z,99297.97
2019-03-05T16:03:18.286Z,99305.47
2019-03-05T16:05:48.827Z,99317.11
2019-03-05T16:08:25.199Z,99306.45
2019-03-05T16:10:54.714Z,99312.44
2019-03-05T16:13:28.570Z,99318.25
2019-03-05T16:16:14.084Z,99316.05
2019-03-05T16:18:43.899Z,99322.39
2019-03-05T16:21:15.847Z,99323.48
2019-03-05T16:23:46.426Z,99329.22
2019-03-05T16:26:17.057Z,99323.78
2019-03-05T16:28:49.678Z,99327.85
2019-03-05T16:31:30.453Z,99343.52
2019-03-05T16:35:06.117Z,99347.61
2019-03-05T16:37:52.920Z,99347.02
2019-03-05T16:40:30.182Z,99353.89
2019-03-05T16:43:32.554Z,99359.36
2019-03-05T16:46:21.186Z,99371.69
2019-03-05T16:48:59.398Z,99381.36
2019-03-05T16:51:46.676Z,99383.56
2019-03-05T16:54:39.442Z,99385.42
2019-03-05T16:57:34.925Z,99398.67
2019-03-05T17:00:31.487Z,99395.95
2019-03-05T17:03:20.503Z,99401.85
2019-03-05T17:06:19.657Z,99410.16
2019-03-05T17:09:12.174Z,99412.34
2019-03-05T17:11:58.381Z,99422.16
2019-03-05T17:14:43.116Z,99426.91
2019-03-05T17:17:17.159Z,99438.33
2019-03-05T17:19:47.866Z,99435.66
2019-03-05T17:22:18.360Z,99446.30
2019-03-05T17:24:49.194Z,99462.06
2019-03-05T17:27:19.819Z,99462.50
2019-03-05T17:29:53.465Z,99467.19
2019-03-05T17:32:24.404Z,99470.85
2019-03-05T17:34:56.474Z,99476.65
2019-03-05T17:37:28.333Z,99481.16
2019-03-05T17:39:59.306Z,99483.16
2019-03-05T17:42:29.819Z,99489.45
2019-03-05T17:45:01.297Z,99492.28
2019-03-05T17:47:32.323Z,99493.81
2019-03-05T17:50:02.928Z,99502.61
2019-03-05T17:52:33.395Z,99503.84
2019-03-05T17:55:06.487Z,99509.50
2019-03-05T17:57:36.969Z,99513.91
2019-03-05T18:00:12.649Z,99517.16
2019-03-05T18:02:43.304Z,99524.70
2019-03-05T18:05:14.159Z,99524.56
2019-03-05T18:07:50.757Z,99523.31
2019-03-05T18:10:21.589Z,99522.46
2019-03-05T18:12:54.078Z,99532.02
2019-03-05T18:15:26.279Z,99533.12
2019-03-05T18:18:00.100Z,99534.64
2019-03-05T18:20:31.023Z,99536.94
2019-03-05T18:23:07.401Z,99539.30
2019-03-05T18:25:58.514Z,99545.33
2019-03-05T18:28:34.738Z,99546.06
2019-03-05T18:31:13.084Z,99556.44
2019-03-05T18:33:43.879Z,99562.20
2019-03-05T18:36:43.282Z,99566.59
2019-03-05T18:39:15.069Z,99571.98
2019-03-05T18:41:45.810Z,99568.55
2019-03-05T18:44:16.683Z,99583.94
2019-03-05T18:46:47.438Z,99586.05
2019-03-05T18:49:19.325Z,99586.56
2019-03-05T18:51:55.453Z,99590.02
2019-03-05T18:54:26.229Z,99594.53
2019-03-05T18:56:57.056Z,99597.77
2019-03-05T18:59:29.398Z,99605.64
2019-03-05T19:02:03.022Z,99612.23
2019-03-05T19:04:33.834Z,99624.28
2019-03-05T19:07:04.627Z,99628.74
2019-03-05T19:09:35.082Z,99635.35
2019-03-05T19:12:08.248Z,99638.13
2019-03-05T19:14:40.880Z,99641.09
2019-03-05T19:17:11.803Z,99652.33
2019-03-05T19:19:42.441Z,99653.90
2019-03-05T19:22:12.989Z,99659.81
2019-03-05T19:24:46.828Z,99659.66
2019-03-05T19:27:26.120Z,99668.25
2019-03-05T19:29:53.483Z,99662.58
2019-03-05T19:32:23.915Z,99665.68
2019-03-05T19:34:55.130Z,99672.69
2019-03-05T19:37:31.372Z,99674.99
2019-03-05T19:40:02.480Z,99676.46
2019-03-05T19:42:33.049Z,99679.91
2019-03-05T19:45:04.408Z,99685.33
2019-03-05T19:47:35.650Z,99692.53
2019-03-05T19:50:09.349Z,99698.86
2019-03-05T19:52:43.182Z,99700.00
2019-03-05T19:55:16.039Z,99705.84
2019-03-05T19:57:46.777Z,99708.22
2019-03-05T20:00:32.474Z,99713.91
2019-03-05T20:03:02.982Z,99709.53
2019-03-05T20:05:35.150Z,99718.43
2019-03-05T20:08:05.598Z,99718.19
2019-03-05T20:10:42.167Z,99714.06
2019-03-05T20:13:17.811Z,99725.52
2019-03-05T20:15:49.899Z,99735.77
2019-03-05T20:18:22.988Z,99730.12
2019-03-05T20:21:15.824Z,99732.52
2019-03-05T20:23:46.362Z,99736.98
2019-03-05T20:26:19.557Z,99739.80
2019-03-05T20:28:52.210Z,99741.13
2019-03-05T20:31:23.353Z,99741.25
2019-03-05T20:34:15.683Z,99733.66
2019-03-05T20:36:51.866Z,99744.39
2019-03-05T20:39:24.679Z,99750.05
2019-03-05T20:42:01.554Z,99746.28
2019-03-05T20:44:32.362Z,99752.94
2019-03-05T20:47:04.686Z,99762.60
2019-03-05T20:49:35.387Z,99764.30
2019-03-05T20:52:06.098Z,99762.98
2019-03-05T20:54:36.939Z,99770.19
2019-03-05T20:57:07.465Z,99773.58
2019-03-05T20:59:38.081Z,99772.36
2019-03-05T21:02:08.548Z,99771.98
2019-03-05T21:04:41.384Z,99778.50
2019-03-05T21:07:14.897Z,99781.56
2019-03-05T21:09:45.616Z,99785.88
2019-03-05T21:12:17.520Z,99786.40
2019-03-05T21:14:47.932Z,99791.58
2019-03-05T21:17:21.658Z,99793.20
2019-03-05T21:19:52.022Z,99795.39
2019-03-05T21:22:22.803Z,99802.64
2019-03-05T21:24:53.191Z,99800.76
2019-03-05T21:27:23.708Z,99801.92
2019-03-05T21:29:58.140Z,99806.16
2019-03-05T21:32:30.240Z,99820.45
2019-03-05T21:35:03.558Z,99824.17
2019-03-05T21:37:34.784Z,99822.96
2019-03-05T21:40:06.084Z,99818.91
2019-03-05T21:42:36.620Z,99828.88
2019-03-05T21:45:12.570Z,99828.08
2019-03-05T21:47:44.630Z,99829.58
2019-03-05T21:50:23.181Z,99834.16
2019-03-05T21:52:56.698Z,99834.64
2019-03-05T21:55:29.668Z,99844.92
2019-03-05T21:58:00.089Z,99844.67
2019-03-05T22:00:31.731Z,99848.63
2019-03-05T22:03:02.402Z,99850.22
2019-03-05T22:05:36.994Z,99852.77
2019-03-05T22:08:10.260Z,99848.16
2019-03-05T22:11:13.362Z,99857.94
2019-03-05T22:13:43.801Z,99861.80
2019-03-05T22:16:15.986Z,99859.39
2019-03-05T22:18:46.401Z,99872.52
2019-03-05T22:21:17.039Z,99871.37
2019-03-05T22:23:47.597Z,99877.48
2019-03-05T22:26:18.709Z,99879.75
2019-03-05T22:29:07.056Z,99884.06
2019-03-05T22:31:38.443Z,99887.92
2019-03-05T22:34:16.902Z,99896.97
2019-03-05T22:36:48.155Z,99903.56
2019-03-05T22:39:20.130Z,99904.89
2019-03-05T22:41:52.388Z,99902.95
2019-03-05T22:44:24.140Z,99909.80
2019-03-05T22:46:54.767Z,99911.05
2019-03-05T22:49:25.507Z,99906.91
2019-03-05T22:51:56.021Z,99908.65
2019-03-05T22:54:26.549Z,99909.13
2019-03-05T22:56:56.951Z,99911.00
2019-03-05T22:59:30.577Z,99913.81
2019-03-05T23:02:01.425Z,99910.40
2019-03-05T23:04:39.935Z,99914.17
2019-03-05T23:07:10.759Z,99917.77
2019-03-05T23:09:41.271Z,99923.27
2019-03-05T23:12:12.710Z,99925.75
2019-03-05T23:14:43.270Z,99925.59
2019-03-05T23:17:16.141Z,99924.41
2019-03-05T23:19:46.583Z,99934.64
2019-03-05T23:22:17.531Z,99933.68
2019-03-05T23:24:47.947Z,99931.00
2019-03-05T23:27:22.079Z,99934.63
2019-03-05T23:29:52.535Z,99939.42
2019-03-05T23:32:23.113Z,99935.45
2019-03-05T23:34:54.792Z,99932.05
2019-03-05T23:37:25.855Z,99937.12
2019-03-05T23:39:56.238Z,99940.42
2019-03-05T23:42:27.032Z,99937.52
2019-03-05T23:44:57.919Z,99944.58
2019-03-05T23:47:28.467Z,99940.95
2019-03-05T23:50:02.332Z,99945.95
2019-03-05T23:52:32.874Z,99945.34
2019-03-05T23:55:03.453Z,99940.94
2019-03-05T23:57:34.161Z,99949.16
